sensor_id;sensor_type;location;lat;lon;timestamp;pressure;altitude;pressure_sealevel;temperature;humidity
40117;BME280;25829;50.228;18.936;2023-05-16T00:01:20;97999.31;;;10.78;69.96
40117;BME280;25829;50.228;18.936;2023-05-16T00:04:21;98000.16;;;10.72;70.02
40117;BME280;25829;50.228;18.936;2023-05-16T00:07:23;97995.44;;;10.55;69.90
40117;BME280;25829;50.228;18.936;2023-05-16T00:10:23;98007.81;;;10.37;70.39
40117;BME280;25829;50.228;18.936;2023-05-16T00:13:28;98001.19;;;10.27;70.81
40117;BME280;25829;50.228;18.936;2023-05-16T00:16:30;98001.78;;;10.29;71.04
40117;BME280;25829;50.228;18.936;2023-05-16T00:19:35;97998.28;;;10.35;71.04
40117;BME280;25829;50.228;18.936;2023-05-16T00:22:36;97988.31;;;10.38;71.45
40117;BME280;25829;50.228;18.936;2023-05-16T00:25:37;98002.09;;;10.40;71.11
40117;BME280;25829;50.228;18.936;2023-05-16T00:28:38;98001.13;;;10.34;70.87
40117;BME280;25829;50.228;18.936;2023-05-16T00:31:39;98005.47;;;10.28;70.88
40117;BME280;25829;50.228;18.936;2023-05-16T00:34:40;98004.91;;;10.20;71.16
40117;BME280;25829;50.228;18.936;2023-05-16T00:37:40;98007.34;;;10.21;71.46
40117;BME280;25829;50.228;18.936;2023-05-16T00:40:41;98005.53;;;10.22;71.41
40117;BME280;25829;50.228;18.936;2023-05-16T00:43:43;98011.59;;;10.22;71.58
40117;BME280;25829;50.228;18.936;2023-05-16T00:46:44;98007.13;;;10.23;71.62
40117;BME280;25829;50.228;18.936;2023-05-16T00:49:46;98003.69;;;10.22;71.68
40117;BME280;25829;50.228;18.936;2023-05-16T00:52:59;97995.97;;;10.21;71.65
40117;BME280;25829;50.228;18.936;2023-05-16T00:56:00;97991.13;;;10.18;71.67
40117;BME280;25829;50.228;18.936;2023-05-16T00:59:01;97996.22;;;10.19;71.51
40117;BME280;25829;50.228;18.936;2023-05-16T01:02:03;98002.75;;;10.10;71.21
40117;BME280;25829;50.228;18.936;2023-05-16T01:05:04;97998.03;;;9.94;71.23
40117;BME280;25829;50.228;18.936;2023-05-16T01:08:05;97995.28;;;9.82;71.75
40117;BME280;25829;50.228;18.936;2023-05-16T01:11:21;98000.16;;;9.78;71.95
40117;BME280;25829;50.228;18.936;2023-05-16T01:15:04;98003.41;;;9.80;72.05
40117;BME280;25829;50.228;18.936;2023-05-16T01:18:30;97987.47;;;9.69;72.08
40117;BME280;25829;50.228;18.936;2023-05-16T01:21:42;97985.75;;;9.56;72.11
40117;BME280;25829;50.228;18.936;2023-05-16T01:28:08;97993.34;;;9.39;72.50
40117;BME280;25829;50.228;18.936;2023-05-16T01:31:09;97993.53;;;9.37;72.64
40117;BME280;25829;50.228;18.936;2023-05-16T01:34:10;97990.31;;;9.35;72.83
40117;BME280;25829;50.228;18.936;2023-05-16T01:37:23;97985.44;;;9.32;72.73
40117;BME280;25829;50.228;18.936;2023-05-16T01:40:40;97991.50;;;9.33;72.92
40117;BME280;25829;50.228;18.936;2023-05-16T01:43:48;97998.59;;;9.32;72.70
40117;BME280;25829;50.228;18.936;2023-05-16T01:46:54;97993.16;;;9.27;72.71
40117;BME280;25829;50.228;18.936;2023-05-16T01:50:17;97987.88;;;9.27;73.11
40117;BME280;25829;50.228;18.936;2023-05-16T01:53:24;97994.84;;;9.15;73.01
40117;BME280;25829;50.228;18.936;2023-05-16T01:56:30;97995.25;;;9.12;72.76
40117;BME280;25829;50.228;18.936;2023-05-16T01:59:38;97991.44;;;9.08;72.99
40117;BME280;25829;50.228;18.936;2023-05-16T02:02:39;97993.44;;;9.06;73.35
40117;BME280;25829;50.228;18.936;2023-05-16T02:05:42;97996.91;;;9.00;73.17
40117;BME280;25829;50.228;18.936;2023-05-16T02:08:50;97990.06;;;8.92;73.39
40117;BME280;25829;50.228;18.936;2023-05-16T02:11:59;97996.19;;;8.79;73.52
40117;BME280;25829;50.228;18.936;2023-05-16T02:15:00;97996.63;;;8.76;74.21
40117;BME280;25829;50.228;18.936;2023-05-16T02:18:00;98003.66;;;8.82;73.79
40117;BME280;25829;50.228;18.936;2023-05-16T02:21:01;98001.22;;;8.87;74.06
40117;BME280;25829;50.228;18.936;2023-05-16T02:24:02;98011.34;;;8.84;73.48
40117;BME280;25829;50.228;18.936;2023-05-16T02:27:06;98013.38;;;8.75;73.35
40117;BME280;25829;50.228;18.936;2023-05-16T02:30:09;97996.63;;;8.69;74.26
40117;BME280;25829;50.228;18.936;2023-05-16T02:33:11;97999.44;;;8.75;73.95
40117;BME280;25829;50.228;18.936;2023-05-16T02:36:15;98001.47;;;8.79;74.00
40117;BME280;25829;50.228;18.936;2023-05-16T02:39:16;98007.91;;;8.83;73.63
40117;BME280;25829;50.228;18.936;2023-05-16T02:42:17;98010.31;;;8.85;73.64
40117;BME280;25829;50.228;18.936;2023-05-16T02:45:18;98010.94;;;8.87;73.28
40117;BME280;25829;50.228;18.936;2023-05-16T02:48:19;98007.50;;;8.86;73.22
40117;BME280;25829;50.228;18.936;2023-05-16T02:51:22;98015.97;;;8.88;73.16
40117;BME280;25829;50.228;18.936;2023-05-16T02:54:23;98012.97;;;8.85;72.96
40117;BME280;25829;50.228;18.936;2023-05-16T02:57:23;98006.66;;;8.86;73.11
40117;BME280;25829;50.228;18.936;2023-05-16T03:00:28;98005.69;;;8.87;73.14
40117;BME280;25829;50.228;18.936;2023-05-16T03:03:29;98003.63;;;8.89;73.57
40117;BME280;25829;50.228;18.936;2023-05-16T03:06:30;98012.75;;;8.93;73.84
40117;BME280;25829;50.228;18.936;2023-05-16T03:09:33;98015.97;;;8.95;73.09
40117;BME280;25829;50.228;18.936;2023-05-16T03:12:34;98012.78;;;8.86;72.66
40117;BME280;25829;50.228;18.936;2023-05-16T03:15:35;98009.94;;;8.81;72.55
40117;BME280;25829;50.228;18.936;2023-05-16T03:18:36;98024.91;;;8.81;73.00
40117;BME280;25829;50.228;18.936;2023-05-16T03:21:37;98019.66;;;8.81;72.98
40117;BME280;25829;50.228;18.936;2023-05-16T03:24:38;98026.13;;;8.78;73.00
40117;BME280;25829;50.228;18.936;2023-05-16T03:27:38;98026.53;;;8.68;73.22
40117;BME280;25829;50.228;18.936;2023-05-16T03:30:39;98029.81;;;8.64;73.04
40117;BME280;25829;50.228;18.936;2023-05-16T03:33:41;98048.44;;;8.62;73.33
40117;BME280;25829;50.228;18.936;2023-05-16T03:36:43;98053.69;;;8.62;73.16
40117;BME280;25829;50.228;18.936;2023-05-16T03:39:43;98044.78;;;8.57;73.22
40117;BME280;25829;50.228;18.936;2023-05-16T03:42:45;98044.38;;;8.53;73.95
40117;BME280;25829;50.228;18.936;2023-05-16T03:45:47;98043.38;;;8.48;74.49
40117;BME280;25829;50.228;18.936;2023-05-16T03:48:48;98044.59;;;8.45;74.31
40117;BME280;25829;50.228;18.936;2023-05-16T03:51:49;98046.22;;;8.46;74.93
40117;BME280;25829;50.228;18.936;2023-05-16T03:54:49;98043.38;;;8.54;74.82
40117;BME280;25829;50.228;18.936;2023-05-16T03:57:50;98049.22;;;8.63;74.88
40117;BME280;25829;50.228;18.936;2023-05-16T04:00:51;98047.78;;;8.74;74.87
40117;BME280;25829;50.228;18.936;2023-05-16T04:03:52;98052.63;;;8.83;74.76
40117;BME280;25829;50.228;18.936;2023-05-16T04:06:53;98045.91;;;8.94;74.46
40117;BME280;25829;50.228;18.936;2023-05-16T04:09:53;98050.97;;;8.96;74.18
40117;BME280;25829;50.228;18.936;2023-05-16T04:12:55;98043.06;;;8.96;74.50
40117;BME280;25829;50.228;18.936;2023-05-16T04:15:56;98046.09;;;8.99;74.66
40117;BME280;25829;50.228;18.936;2023-05-16T04:18:57;98050.94;;;9.09;74.64
40117;BME280;25829;50.228;18.936;2023-05-16T04:21:58;98057.38;;;9.20;74.56
40117;BME280;25829;50.228;18.936;2023-05-16T04:24:59;98056.94;;;9.29;74.54
40117;BME280;25829;50.228;18.936;2023-05-16T04:28:00;98059.72;;;9.41;74.25
40117;BME280;25829;50.228;18.936;2023-05-16T04:31:05;98068.22;;;9.50;74.18
40117;BME280;25829;50.228;18.936;2023-05-16T04:34:07;98072.00;;;9.60;74.20
40117;BME280;25829;50.228;18.936;2023-05-16T04:37:20;98076.59;;;9.72;74.15
40117;BME280;25829;50.228;18.936;2023-05-16T04:40:51;98076.91;;;9.88;73.98
40117;BME280;25829;50.228;18.936;2023-05-16T04:44:01;98077.84;;;10.01;73.91
40117;BME280;25829;50.228;18.936;2023-05-16T04:47:19;98086.03;;;10.18;73.90
40117;BME280;25829;50.228;18.936;2023-05-16T04:50:35;98092.84;;;10.32;73.49
40117;BME280;25829;50.228;18.936;2023-05-16T05:04:50;98099.03;;;10.94;72.50
40117;BME280;25829;50.228;18.936;2023-05-16T05:07:51;98103.50;;;11.12;72.26
40117;BME280;25829;50.228;18.936;2023-05-16T05:10:54;98108.03;;;11.23;71.73
40117;BME280;25829;50.228;18.936;2023-05-16T05:13:55;98112.38;;;11.36;71.82
40117;BME280;25829;50.228;18.936;2023-05-16T05:16:56;98106.09;;;11.49;71.37
40117;BME280;25829;50.228;18.936;2023-05-16T05:19:57;98107.59;;;11.63;71.26
40117;BME280;25829;50.228;18.936;2023-05-16T05:22:57;98115.69;;;11.80;71.01
40117;BME280;25829;50.228;18.936;2023-05-16T05:25:58;98101.94;;;11.90;71.04
40117;BME280;25829;50.228;18.936;2023-05-16T05:28:59;98106.25;;;12.03;70.85
40117;BME280;25829;50.228;18.936;2023-05-16T05:32:03;98106.63;;;12.18;70.27
40117;BME280;25829;50.228;18.936;2023-05-16T05:35:04;98101.94;;;12.32;69.93
40117;BME280;25829;50.228;18.936;2023-05-16T05:38:05;98099.34;;;12.43;69.31
40117;BME280;25829;50.228;18.936;2023-05-16T05:41:12;98085.31;;;12.55;68.72
40117;BME280;25829;50.228;18.936;2023-05-16T05:44:17;98103.97;;;12.71;68.35
40117;BME280;25829;50.228;18.936;2023-05-16T05:47:17;98103.16;;;12.83;68.34
40117;BME280;25829;50.228;18.936;2023-05-16T05:50:18;98102.34;;;12.94;67.55
40117;BME280;25829;50.228;18.936;2023-05-16T05:53:19;98092.56;;;13.06;67.30
40117;BME280;25829;50.228;18.936;2023-05-16T05:56:20;98101.53;;;13.17;66.88
40117;BME280;25829;50.228;18.936;2023-05-16T05:59:21;98107.75;;;13.23;66.29
40117;BME280;25829;50.228;18.936;2023-05-16T06:02:22;98130.31;;;13.37;66.25
40117;BME280;25829;50.228;18.936;2023-05-16T06:05:22;98116.09;;;13.43;65.92
40117;BME280;25829;50.228;18.936;2023-05-16T06:08:23;98118.06;;;13.48;65.69
40117;BME280;25829;50.228;18.936;2023-05-16T06:11:24;98121.25;;;13.61;65.66
40117;BME280;25829;50.228;18.936;2023-05-16T06:14:25;98125.38;;;13.69;64.97
40117;BME280;25829;50.228;18.936;2023-05-16T06:17:26;98119.59;;;13.72;64.96
40117;BME280;25829;50.228;18.936;2023-05-16T06:20:26;98116.75;;;13.90;65.12
40117;BME280;25829;50.228;18.936;2023-05-16T06:23:28;98112.59;;;14.23;64.62
40117;BME280;25829;50.228;18.936;2023-05-16T06:26:31;98117.84;;;14.52;64.25
40117;BME280;25829;50.228;18.936;2023-05-16T06:29:32;98122.34;;;14.68;62.97
40117;BME280;25829;50.228;18.936;2023-05-16T06:32:33;98123.69;;;14.71;62.75
40117;BME280;25829;50.228;18.936;2023-05-16T06:35:34;98125.06;;;14.73;62.89
40117;BME280;25829;50.228;18.936;2023-05-16T06:38:35;98122.00;;;14.81;62.65
40117;BME280;25829;50.228;18.936;2023-05-16T06:41:35;98114.75;;;14.94;62.45
40117;BME280;25829;50.228;18.936;2023-05-16T06:44:38;98117.88;;;15.07;62.59
40117;BME280;25829;50.228;18.936;2023-05-16T06:47:39;98121.47;;;15.18;62.17
40117;BME280;25829;50.228;18.936;2023-05-16T06:50:40;98120.25;;;15.26;61.76
40117;BME280;25829;50.228;18.936;2023-05-16T06:53:40;98114.38;;;15.24;61.33
40117;BME280;25829;50.228;18.936;2023-05-16T06:56:41;98110.88;;;15.23;61.69
40117;BME280;25829;50.228;18.936;2023-05-16T06:59:42;98117.91;;;15.29;61.28
40117;BME280;25829;50.228;18.936;2023-05-16T07:02:43;98121.16;;;15.31;61.28
40117;BME280;25829;50.228;18.936;2023-05-16T07:05:44;98118.31;;;15.38;61.00
40117;BME280;25829;50.228;18.936;2023-05-16T07:08:45;98126.91;;;15.45;61.16
40117;BME280;25829;50.228;18.936;2023-05-16T07:11:52;98127.81;;;15.56;61.04
40117;BME280;25829;50.228;18.936;2023-05-16T07:14:53;98121.03;;;15.65;60.75
40117;BME280;25829;50.228;18.936;2023-05-16T07:17:54;98119.81;;;15.78;60.68
40117;BME280;25829;50.228;18.936;2023-05-16T07:20:55;98125.22;;;15.83;59.63
40117;BME280;25829;50.228;18.936;2023-05-16T07:23:56;98122.59;;;15.88;60.33
40117;BME280;25829;50.228;18.936;2023-05-16T07:26:58;98132.03;;;16.01;59.96
40117;BME280;25829;50.228;18.936;2023-05-16T07:30:03;98128.13;;;16.09;59.31
40117;BME280;25829;50.228;18.936;2023-05-16T07:33:04;98134.03;;;16.16;58.79
40117;BME280;25829;50.228;18.936;2023-05-16T07:36:05;98147.41;;;16.21;59.01
40117;BME280;25829;50.228;18.936;2023-05-16T07:39:06;98144.91;;;16.36;59.10
40117;BME280;25829;50.228;18.936;2023-05-16T07:42:08;98146.59;;;16.47;59.03
40117;BME280;25829;50.228;18.936;2023-05-16T07:45:12;98149.13;;;16.59;58.58
40117;BME280;25829;50.228;18.936;2023-05-16T07:48:16;98164.41;;;16.74;58.38
40117;BME280;25829;50.228;18.936;2023-05-16T07:51:16;98173.31;;;16.90;58.17
40117;BME280;25829;50.228;18.936;2023-05-16T07:54:17;98179.84;;;17.09;58.19
40117;BME280;25829;50.228;18.936;2023-05-16T07:57:18;98185.81;;;17.21;57.74
40117;BME280;25829;50.228;18.936;2023-05-16T08:00:42;98197.34;;;17.32;55.86
40117;BME280;25829;50.228;18.936;2023-05-16T08:03:44;98194.84;;;17.20;55.34
40117;BME280;25829;50.228;18.936;2023-05-16T08:06:48;98192.47;;;17.19;56.46
40117;BME280;25829;50.228;18.936;2023-05-16T08:09:49;98188.03;;;17.35;56.92
40117;BME280;25829;50.228;18.936;2023-05-16T08:15:52;98197.56;;;17.78;56.53
40117;BME280;25829;50.228;18.936;2023-05-16T08:18:52;98197.69;;;18.04;55.91
40117;BME280;25829;50.228;18.936;2023-05-16T08:21:53;98193.75;;;18.27;55.89
40117;BME280;25829;50.228;18.936;2023-05-16T08:24:54;98190.03;;;18.43;54.80
40117;BME280;25829;50.228;18.936;2023-05-16T08:28:06;98193.50;;;18.59;54.09
40117;BME280;25829;50.228;18.936;2023-05-16T08:31:06;98200.25;;;18.92;54.28
40117;BME280;25829;50.228;18.936;2023-05-16T08:34:07;98199.09;;;19.44;52.78
40117;BME280;25829;50.228;18.936;2023-05-16T08:37:09;98190.81;;;20.16;52.30
40117;BME280;25829;50.228;18.936;2023-05-16T08:40:13;98187.53;;;20.97;51.05
40117;BME280;25829;50.228;18.936;2023-05-16T08:43:15;98196.31;;;21.37;49.72
40117;BME280;25829;50.228;18.936;2023-05-16T08:46:22;98188.50;;;21.41;48.51
40117;BME280;25829;50.228;18.936;2023-05-16T08:49:26;98166.16;;;21.45;48.48
40117;BME280;25829;50.228;18.936;2023-05-16T08:52:29;98174.41;;;21.54;48.75
40117;BME280;25829;50.228;18.936;2023-05-16T08:55:30;98170.16;;;21.72;48.24
40117;BME280;25829;50.228;18.936;2023-05-16T08:58:36;98174.34;;;22.02;47.90
40117;BME280;25829;50.228;18.936;2023-05-16T09:01:41;98178.94;;;22.21;46.81
40117;BME280;25829;50.228;18.936;2023-05-16T09:05:02;98175.28;;;22.49;46.24
40117;BME280;25829;50.228;18.936;2023-05-16T09:08:12;98183.38;;;22.82;48.55
40117;BME280;25829;50.228;18.936;2023-05-16T09:14:57;98182.53;;;23.33;47.89
40117;BME280;25829;50.228;18.936;2023-05-16T09:18:00;98182.66;;;23.69;47.21
40117;BME280;25829;50.228;18.936;2023-05-16T09:21:11;98183.31;;;24.02;47.20
40117;BME280;25829;50.228;18.936;2023-05-16T09:24:32;98178.22;;;24.37;46.01
40117;BME280;25829;50.228;18.936;2023-05-16T09:27:33;98170.81;;;24.43;45.13
40117;BME280;25829;50.228;18.936;2023-05-16T09:30:58;98166.53;;;24.42;42.04
40117;BME280;25829;50.228;18.936;2023-05-16T09:33:59;98173.38;;;24.48;43.59
40117;BME280;25829;50.228;18.936;2023-05-16T09:37:17;98177.38;;;24.50;41.49
40117;BME280;25829;50.228;18.936;2023-05-16T09:40:22;98187.75;;;24.35;42.12
40117;BME280;25829;50.228;18.936;2023-05-16T09:43:25;98182.94;;;24.32;43.30
40117;BME280;25829;50.228;18.936;2023-05-16T09:47:21;98180.31;;;24.40;42.60
40117;BME280;25829;50.228;18.936;2023-05-16T09:50:23;98172.41;;;24.44;42.70
40117;BME280;25829;50.228;18.936;2023-05-16T09:53:26;98179.56;;;24.26;39.69
40117;BME280;25829;50.228;18.936;2023-05-16T09:56:52;98184.22;;;23.84;40.16
40117;BME280;25829;50.228;18.936;2023-05-16T09:59:52;98181.84;;;23.41;42.87
40117;BME280;25829;50.228;18.936;2023-05-16T10:02:55;98183.38;;;23.15;43.52
40117;BME280;25829;50.228;18.936;2023-05-16T10:06:05;98179.41;;;22.79;43.05
40117;BME280;25829;50.228;18.936;2023-05-16T10:09:09;98177.03;;;22.40;42.84
40117;BME280;25829;50.228;18.936;2023-05-16T10:12:28;98162.22;;;22.05;42.16
40117;BME280;25829;50.228;18.936;2023-05-16T10:15:38;98173.56;;;21.78;43.67
40117;BME280;25829;50.228;18.936;2023-05-16T10:18:42;98167.81;;;21.65;43.63
40117;BME280;25829;50.228;18.936;2023-05-16T10:25:39;98167.25;;;21.44;43.26
40117;BME280;25829;50.228;18.936;2023-05-16T10:32:14;98162.72;;;21.16;43.80
40117;BME280;25829;50.228;18.936;2023-05-16T10:35:15;98160.50;;;20.94;42.73
40117;BME280;25829;50.228;18.936;2023-05-16T10:42:35;98167.53;;;20.56;41.81
40117;BME280;25829;50.228;18.936;2023-05-16T10:45:39;98164.13;;;20.45;42.55
40117;BME280;25829;50.228;18.936;2023-05-16T10:52:15;98166.06;;;20.29;41.71
40117;BME280;25829;50.228;18.936;2023-05-16T11:03:36;98161.72;;;19.99;42.14
40117;BME280;25829;50.228;18.936;2023-05-16T11:09:52;98152.81;;;20.09;43.77
40117;BME280;25829;50.228;18.936;2023-05-16T11:13:07;98148.50;;;20.13;43.93
40117;BME280;25829;50.228;18.936;2023-05-16T11:16:32;98149.91;;;20.00;38.65
40117;BME280;25829;50.228;18.936;2023-05-16T11:20:07;98148.19;;;19.75;39.71
40117;BME280;25829;50.228;18.936;2023-05-16T11:23:34;98133.47;;;19.62;41.43
40117;BME280;25829;50.228;18.936;2023-05-16T11:26:59;98131.63;;;19.57;41.46
40117;BME280;25829;50.228;18.936;2023-05-16T11:30:16;98123.31;;;19.59;41.31
40117;BME280;25829;50.228;18.936;2023-05-16T11:33:24;98134.56;;;19.61;41.79
40117;BME280;25829;50.228;18.936;2023-05-16T11:36:28;98130.03;;;19.56;42.06
40117;BME280;25829;50.228;18.936;2023-05-16T11:39:32;98131.09;;;19.55;42.37
40117;BME280;25829;50.228;18.936;2023-05-16T11:42:47;98128.91;;;19.63;43.02
40117;BME280;25829;50.228;18.936;2023-05-16T11:45:53;98129.19;;;19.66;42.84
40117;BME280;25829;50.228;18.936;2023-05-16T11:48:55;98134.53;;;19.66;42.79
40117;BME280;25829;50.228;18.936;2023-05-16T11:55:49;98124.66;;;19.62;41.89
40117;BME280;25829;50.228;18.936;2023-05-16T11:59:26;98132.97;;;19.55;42.66
40117;BME280;25829;50.228;18.936;2023-05-16T12:02:30;98131.63;;;19.57;42.94
40117;BME280;25829;50.228;18.936;2023-05-16T12:05:38;98139.13;;;19.61;43.05
40117;BME280;25829;50.228;18.936;2023-05-16T12:08:51;98132.97;;;19.65;42.54
40117;BME280;25829;50.228;18.936;2023-05-16T12:12:14;98137.50;;;19.65;40.80
40117;BME280;25829;50.228;18.936;2023-05-16T12:15:42;98132.97;;;19.65;39.91
40117;BME280;25829;50.228;18.936;2023-05-16T12:19:05;98131.59;;;19.63;40.30
40117;BME280;25829;50.228;18.936;2023-05-16T12:25:28;98125.44;;;19.62;41.67
40117;BME280;25829;50.228;18.936;2023-05-16T12:28:43;98116.34;;;19.63;40.80
40117;BME280;25829;50.228;18.936;2023-05-16T12:31:56;98116.66;;;19.56;40.35
40117;BME280;25829;50.228;18.936;2023-05-16T12:36:12;98117.75;;;19.50;41.73
40117;BME280;25829;50.228;18.936;2023-05-16T12:47:19;98105.47;;;19.44;42.34
40117;BME280;25829;50.228;18.936;2023-05-16T12:50:39;98106.81;;;19.42;42.31
40117;BME280;25829;50.228;18.936;2023-05-16T12:57:54;98105.53;;;19.29;42.85
40117;BME280;25829;50.228;18.936;2023-05-16T13:00:56;98100.47;;;19.22;43.14
40117;BME280;25829;50.228;18.936;2023-05-16T13:24:55;98089.81;;;19.07;44.59
40117;BME280;25829;50.228;18.936;2023-05-16T13:32:21;98084.25;;;18.88;44.09
40117;BME280;25829;50.228;18.936;2023-05-16T13:39:54;98076.78;;;18.64;43.78
40117;BME280;25829;50.228;18.936;2023-05-16T13:46:29;98083.72;;;18.45;44.62
40117;BME280;25829;50.228;18.936;2023-05-16T13:53:19;98073.84;;;18.30;46.40
40117;BME280;25829;50.228;18.936;2023-05-16T13:56:23;98069.31;;;18.26;47.11
40117;BME280;25829;50.228;18.936;2023-05-16T13:59:24;98076.25;;;18.16;47.69
40117;BME280;25829;50.228;18.936;2023-05-16T14:02:25;98083.19;;;18.07;48.51
40117;BME280;25829;50.228;18.936;2023-05-16T14:05:26;98088.50;;;17.97;49.24
40117;BME280;25829;50.228;18.936;2023-05-16T14:08:27;98089.00;;;17.84;49.86
40117;BME280;25829;50.228;18.936;2023-05-16T14:11:29;98087.38;;;17.78;50.77
40117;BME280;25829;50.228;18.936;2023-05-16T14:14:36;98100.69;;;17.67;51.33
40117;BME280;25829;50.228;18.936;2023-05-16T14:17:37;98104.41;;;17.56;52.56
40117;BME280;25829;50.228;18.936;2023-05-16T14:20:38;98101.41;;;17.48;53.70
40117;BME280;25829;50.228;18.936;2023-05-16T14:23:39;98104.31;;;17.41;54.78
40117;BME280;25829;50.228;18.936;2023-05-16T14:26:39;98103.75;;;17.29;55.77
40117;BME280;25829;50.228;18.936;2023-05-16T14:29:40;98103.03;;;17.01;57.68
40117;BME280;25829;50.228;18.936;2023-05-16T14:32:44;98105.53;;;16.75;58.37
40117;BME280;25829;50.228;18.936;2023-05-16T14:35:51;98114.81;;;16.68;59.00
40117;BME280;25829;50.228;18.936;2023-05-16T14:38:51;98110.78;;;16.65;59.01
40117;BME280;25829;50.228;18.936;2023-05-16T14:41:52;98114.22;;;16.61;58.96
40117;BME280;25829;50.228;18.936;2023-05-16T14:44:53;98125.94;;;16.60;58.90
40117;BME280;25829;50.228;18.936;2023-05-16T14:47:54;98131.28;;;16.60;59.11
40117;BME280;25829;50.228;18.936;2023-05-16T14:50:54;98130.19;;;16.61;59.30
40117;BME280;25829;50.228;18.936;2023-05-16T14:53:55;98137.41;;;16.60;59.76
40117;BME280;25829;50.228;18.936;2023-05-16T14:56:56;98137.03;;;16.51;60.18
40117;BME280;25829;50.228;18.936;2023-05-16T14:59:59;98145.50;;;16.43;60.92
40117;BME280;25829;50.228;18.936;2023-05-16T15:03:00;98145.78;;;16.42;61.51
40117;BME280;25829;50.228;18.936;2023-05-16T15:06:01;98157.22;;;16.42;62.15
40117;BME280;25829;50.228;18.936;2023-05-16T15:09:14;98153.47;;;16.38;63.42
40117;BME280;25829;50.228;18.936;2023-05-16T15:17:31;98143.63;;;16.17;65.43
40117;BME280;25829;50.228;18.936;2023-05-16T15:35:10;98159.81;;;15.88;65.15
40117;BME280;25829;50.228;18.936;2023-05-16T15:38:12;98150.25;;;15.87;65.68
40117;BME280;25829;50.228;18.936;2023-05-16T15:41:13;98139.81;;;15.80;65.84
40117;BME280;25829;50.228;18.936;2023-05-16T15:44:15;98135.72;;;15.73;66.14
40117;BME280;25829;50.228;18.936;2023-05-16T15:47:15;98127.69;;;15.68;66.74
40117;BME280;25829;50.228;18.936;2023-05-16T15:50:16;98128.47;;;15.68;66.76
40117;BME280;25829;50.228;18.936;2023-05-16T16:10:50;98141.59;;;14.75;69.64
40117;BME280;25829;50.228;18.936;2023-05-16T16:14:27;98151.16;;;14.76;70.70
40117;BME280;25829;50.228;18.936;2023-05-16T16:18:01;98147.75;;;14.81;70.66
40117;BME280;25829;50.228;18.936;2023-05-16T16:24:36;98144.63;;;14.84;69.92
40117;BME280;25829;50.228;18.936;2023-05-16T16:28:07;98147.59;;;14.88;70.42
40117;BME280;25829;50.228;18.936;2023-05-16T16:31:07;98150.19;;;14.82;69.89
40117;BME280;25829;50.228;18.936;2023-05-16T16:34:10;98151.94;;;14.77;69.60
40117;BME280;25829;50.228;18.936;2023-05-16T16:37:18;98143.34;;;14.70;70.03
40117;BME280;25829;50.228;18.936;2023-05-16T16:40:29;98155.72;;;14.64;70.50
40117;BME280;25829;50.228;18.936;2023-05-16T16:47:09;98153.81;;;14.59;70.49
40117;BME280;25829;50.228;18.936;2023-05-16T16:50:39;98168.13;;;14.58;71.01
40117;BME280;25829;50.228;18.936;2023-05-16T17:05:42;98174.19;;;14.25;71.76
40117;BME280;25829;50.228;18.936;2023-05-16T17:19:51;98179.59;;;14.30;72.11
40117;BME280;25829;50.228;18.936;2023-05-16T17:23:12;98188.25;;;14.26;72.26
40117;BME280;25829;50.228;18.936;2023-05-16T17:26:13;98180.66;;;14.18;73.52
40117;BME280;25829;50.228;18.936;2023-05-16T17:29:14;98178.88;;;13.95;74.04
40117;BME280;25829;50.228;18.936;2023-05-16T17:32:19;98181.78;;;13.93;73.79
40117;BME280;25829;50.228;18.936;2023-05-16T17:35:45;98181.88;;;13.98;74.42
40117;BME280;25829;50.228;18.936;2023-05-16T17:39:14;98175.94;;;13.79;75.35
40117;BME280;25829;50.228;18.936;2023-05-16T17:42:47;98180.25;;;13.69;76.17
40117;BME280;25829;50.228;18.936;2023-05-16T17:58:09;98184.56;;;13.34;78.00
40117;BME280;25829;50.228;18.936;2023-05-16T18:21:14;98190.06;;;12.98;78.14
40117;BME280;25829;50.228;18.936;2023-05-16T18:24:15;98199.75;;;13.04;77.92
40117;BME280;25829;50.228;18.936;2023-05-16T18:27:19;98190.28;;;13.08;77.54
40117;BME280;25829;50.228;18.936;2023-05-16T18:30:20;98212.97;;;13.15;77.60
40117;BME280;25829;50.228;18.936;2023-05-16T18:33:21;98217.28;;;13.28;77.20
40117;BME280;25829;50.228;18.936;2023-05-16T18:36:22;98215.31;;;13.35;76.73
40117;BME280;25829;50.228;18.936;2023-05-16T18:39:32;98209.47;;;13.33;77.99
40117;BME280;25829;50.228;18.936;2023-05-16T18:42:32;98204.84;;;13.17;79.23
40117;BME280;25829;50.228;18.936;2023-05-16T18:45:33;98207.09;;;13.02;79.43
40117;BME280;25829;50.228;18.936;2023-05-16T18:48:37;98195.94;;;12.88;80.24
40117;BME280;25829;50.228;18.936;2023-05-16T18:51:44;98210.88;;;12.82;79.53
40117;BME280;25829;50.228;18.936;2023-05-16T19:09:26;98239.63;;;13.21;76.96
40117;BME280;25829;50.228;18.936;2023-05-16T19:12:26;98231.69;;;13.21;77.43
40117;BME280;25829;50.228;18.936;2023-05-16T19:15:27;98229.56;;;13.11;78.99
40117;BME280;25829;50.228;18.936;2023-05-16T19:18:31;98227.81;;;12.93;79.58
40117;BME280;25829;50.228;18.936;2023-05-16T19:21:34;98219.03;;;12.81;79.90
40117;BME280;25829;50.228;18.936;2023-05-16T19:25:07;98239.66;;;12.90;79.88
40117;BME280;25829;50.228;18.936;2023-05-16T19:28:09;98235.53;;;12.94;79.49
40117;BME280;25829;50.228;18.936;2023-05-16T19:31:10;98234.50;;;13.07;78.82
40117;BME280;25829;50.228;18.936;2023-05-16T19:34:10;98227.47;;;13.01;79.44
40117;BME280;25829;50.228;18.936;2023-05-16T19:37:11;98218.13;;;12.75;82.41
40117;BME280;25829;50.228;18.936;2023-05-16T19:40:12;98216.38;;;12.57;82.22
40117;BME280;25829;50.228;18.936;2023-05-16T19:43:20;98215.06;;;12.48;82.46
40117;BME280;25829;50.228;18.936;2023-05-16T19:46:21;98218.84;;;12.40;83.33
40117;BME280;25829;50.228;18.936;2023-05-16T19:49:21;98209.31;;;12.21;85.18
40117;BME280;25829;50.228;18.936;2023-05-16T19:52:25;98210.91;;;12.10;86.26